Terminal Aerodrome Forecast
Issued by NWS Omaha/Valley, NE

Home | Current Version | Previous Version | Text Only | Print | Product List | Glossary On
Versions: 1 2 3 4 5 6 7 8 9 10 11 12 13 14 15 16 17 18 19 20 21 22 23 24 25 26 27 28 29 30 31 32 33 34 35 36 37 38 39 40 41 42 43 44
000
FTUS43 KOAX 232320
TAFOFK
TAF
KOFK 232320Z 2400/2424 33018G27KT P6SM SCT050 OVC120
      TEMPO 2402/2404 BKN035
     FM240400 33021G28KT P6SM OVC025
      TEMPO 2406/2410 -SN BKN015
     FM241600 32024G33KT P6SM BKN035=

USA.gov is the U.S. government's official web portal to all federal, state and local government web resources and services.